sensor_id;sensor_type;location;lat;lon;timestamp;pressure;altitude;pressure_sealevel;temperature;humidity
60319;BME280;46163;52.306;5.634;2022-09-27T00:01:59;99497.59;;;18.15;62.66
60319;BME280;46163;52.306;5.634;2022-09-27T00:04:25;99494.38;;;18.13;62.89
60319;BME280;46163;52.306;5.634;2022-09-27T00:06:51;99499.75;;;18.13;62.77
60319;BME280;46163;52.306;5.634;2022-09-27T00:09:17;99500.06;;;18.11;62.64
60319;BME280;46163;52.306;5.634;2022-09-27T00:11:43;99507.63;;;18.09;62.93
60319;BME280;46163;52.306;5.634;2022-09-27T00:14:10;99504.13;;;18.08;62.83
60319;BME280;46163;52.306;5.634;2022-09-27T00:16:38;99518.13;;;18.05;62.79
60319;BME280;46163;52.306;5.634;2022-09-27T00:19:14;99501.97;;;18.05;62.77
60319;BME280;46163;52.306;5.634;2022-09-27T00:21:40;99507.94;;;18.02;62.74
60319;BME280;46163;52.306;5.634;2022-09-27T00:24:12;99491.56;;;17.99;62.68
60319;BME280;46163;52.306;5.634;2022-09-27T00:26:39;99471.78;;;17.79;62.87
60319;BME280;46163;52.306;5.634;2022-09-27T00:29:06;99488.88;;;17.99;62.75
60319;BME280;46163;52.306;5.634;2022-09-27T00:31:32;99499.63;;;17.99;62.77
60319;BME280;46163;52.306;5.634;2022-09-27T00:34:00;99490.22;;;17.96;62.68
60319;BME280;46163;52.306;5.634;2022-09-27T00:36:27;99495.59;;;17.96;63.01
60319;BME280;46163;52.306;5.634;2022-09-27T00:38:53;99496.69;;;17.95;62.68
60319;BME280;46163;52.306;5.634;2022-09-27T00:41:22;99504.75;;;17.95;62.83
60319;BME280;46163;52.306;5.634;2022-09-27T00:43:50;99510.44;;;17.94;62.82
60319;BME280;46163;52.306;5.634;2022-09-27T00:48:51;99516.91;;;17.93;62.70
60319;BME280;46163;52.306;5.634;2022-09-27T00:51:22;99509.09;;;17.91;62.82
60319;BME280;46163;52.306;5.634;2022-09-27T00:53:49;99519.88;;;17.91;62.87
60319;BME280;46163;52.306;5.634;2022-09-27T00:56:21;99515.56;;;17.90;62.74
60319;BME280;46163;52.306;5.634;2022-09-27T00:59:05;99504.06;;;17.79;62.52
60319;BME280;46163;52.306;5.634;2022-09-27T01:01:34;99514.53;;;17.86;62.79
60319;BME280;46163;52.306;5.634;2022-09-27T01:04:05;99519.09;;;17.86;62.80
60319;BME280;46163;52.306;5.634;2022-09-27T01:06:32;99522.59;;;17.86;62.68
60319;BME280;46163;52.306;5.634;2022-09-27T01:08:57;99518.28;;;17.85;62.80
60319;BME280;46163;52.306;5.634;2022-09-27T01:11:36;99516.69;;;17.84;62.69
60319;BME280;46163;52.306;5.634;2022-09-27T01:14:28;99524.25;;;17.82;62.83
60319;BME280;46163;52.306;5.634;2022-09-27T01:29:06;99524.03;;;17.73;62.70
60319;BME280;46163;52.306;5.634;2022-09-27T01:34:22;99522.66;;;17.76;62.58
60319;BME280;46163;52.306;5.634;2022-09-27T01:42:45;99540.19;;;17.73;62.51
60319;BME280;46163;52.306;5.634;2022-09-27T01:45:25;99537.75;;;17.72;62.43
60319;BME280;46163;52.306;5.634;2022-09-27T01:47:58;99538.84;;;17.71;62.49
60319;BME280;46163;52.306;5.634;2022-09-27T01:50:56;99532.66;;;17.70;62.60
60319;BME280;46163;52.306;5.634;2022-09-27T01:53:31;99530.25;;;17.64;62.61
60319;BME280;46163;52.306;5.634;2022-09-27T01:56:02;99536.69;;;17.68;62.72
60319;BME280;46163;52.306;5.634;2022-09-27T01:58:35;99535.38;;;17.65;62.51
60319;BME280;46163;52.306;5.634;2022-09-27T02:01:05;99538.06;;;17.65;62.78
60319;BME280;46163;52.306;5.634;2022-09-27T02:03:35;99535.66;;;17.64;62.71
60319;BME280;46163;52.306;5.634;2022-09-27T02:06:28;99530.25;;;17.64;62.34
60319;BME280;46163;52.306;5.634;2022-09-27T02:08:59;99524.34;;;17.62;62.59
60319;BME280;46163;52.306;5.634;2022-09-27T02:11:27;99529.72;;;17.62;62.80
60319;BME280;46163;52.306;5.634;2022-09-27T02:13:57;99528.09;;;17.61;62.68
60319;BME280;46163;52.306;5.634;2022-09-27T02:24:36;99519.28;;;17.55;62.57
60319;BME280;46163;52.306;5.634;2022-09-27T02:27:13;99519.28;;;17.55;62.66
60319;BME280;46163;52.306;5.634;2022-09-27T02:29:49;99508.25;;;17.51;62.53
60319;BME280;46163;52.306;5.634;2022-09-27T02:32:18;99515.25;;;17.52;62.67
60319;BME280;46163;52.306;5.634;2022-09-27T02:34:45;99514.72;;;17.50;62.70
60319;BME280;46163;52.306;5.634;2022-09-27T02:37:12;99509.34;;;17.50;62.67
60319;BME280;46163;52.306;5.634;2022-09-27T02:39:37;99511.53;;;17.48;62.47
60319;BME280;46163;52.306;5.634;2022-09-27T02:42:03;99517.97;;;17.47;62.46
60319;BME280;46163;52.306;5.634;2022-09-27T02:44:30;99509.91;;;17.47;62.55
60319;BME280;46163;52.306;5.634;2022-09-27T02:55:39;99506.13;;;17.48;62.48
60319;BME280;46163;52.306;5.634;2022-09-27T03:01:11;99506.97;;;17.44;62.51
60319;BME280;46163;52.306;5.634;2022-09-27T03:03:57;99513.94;;;17.45;62.60
60319;BME280;46163;52.306;5.634;2022-09-27T03:06:24;99514.22;;;17.43;62.29
60319;BME280;46163;52.306;5.634;2022-09-27T03:08:50;99524.19;;;17.43;62.37
60319;BME280;46163;52.306;5.634;2022-09-27T03:11:15;99525.56;;;17.40;62.45
60319;BME280;46163;52.306;5.634;2022-09-27T03:13:43;99522.06;;;17.40;62.40
60319;BME280;46163;52.306;5.634;2022-09-27T03:16:09;99517.75;;;17.39;62.36
60319;BME280;46163;52.306;5.634;2022-09-27T03:18:34;99520.69;;;17.37;62.61
60319;BME280;46163;52.306;5.634;2022-09-27T03:21:00;99512.91;;;17.36;62.56
60319;BME280;46163;52.306;5.634;2022-09-27T03:23:25;99512.41;;;17.34;62.45
60319;BME280;46163;52.306;5.634;2022-09-27T03:25:51;99507.31;;;17.32;62.51
60319;BME280;46163;52.306;5.634;2022-09-27T03:28:18;99508.38;;;17.31;62.38
60319;BME280;46163;52.306;5.634;2022-09-27T03:30:45;99507.59;;;17.31;62.51
60319;BME280;46163;52.306;5.634;2022-09-27T03:33:11;99513.75;;;17.31;62.46
60319;BME280;46163;52.306;5.634;2022-09-27T03:35:37;99514.84;;;17.30;62.59
60319;BME280;46163;52.306;5.634;2022-09-27T03:38:03;99512.41;;;17.29;62.50
60319;BME280;46163;52.306;5.634;2022-09-27T03:40:29;99512.16;;;17.25;62.44
60319;BME280;46163;52.306;5.634;2022-09-27T03:42:54;99515.38;;;17.27;62.71
60319;BME280;46163;52.306;5.634;2022-09-27T03:45:20;99525.34;;;17.27;62.75
60319;BME280;46163;52.306;5.634;2022-09-27T03:47:46;99517.56;;;17.25;62.55
60319;BME280;46163;52.306;5.634;2022-09-27T03:50:12;99524.00;;;17.24;62.58
60319;BME280;46163;52.306;5.634;2022-09-27T03:52:38;99523.22;;;17.23;62.46
60319;BME280;46163;52.306;5.634;2022-09-27T03:55:05;99522.94;;;17.25;62.50
60319;BME280;46163;52.306;5.634;2022-09-27T03:57:31;99530.19;;;17.24;62.56
60319;BME280;46163;52.306;5.634;2022-09-27T03:59:57;99524.81;;;17.24;62.53
60319;BME280;46163;52.306;5.634;2022-09-27T04:02:25;99521.84;;;17.26;62.50
60319;BME280;46163;52.306;5.634;2022-09-27T04:04:50;99524.53;;;17.31;62.39
60319;BME280;46163;52.306;5.634;2022-09-27T04:07:16;99523.16;;;17.34;62.26
60319;BME280;46163;52.306;5.634;2022-09-27T04:09:42;99528.78;;;17.37;62.11
60319;BME280;46163;52.306;5.634;2022-09-27T04:12:08;99525.03;;;17.38;62.38
60319;BME280;46163;52.306;5.634;2022-09-27T04:14:34;99527.44;;;17.40;62.11
60319;BME280;46163;52.306;5.634;2022-09-27T04:16:59;99524.97;;;17.43;62.03
60319;BME280;46163;52.306;5.634;2022-09-27T04:19:25;99520.66;;;17.47;62.10
60319;BME280;46163;52.306;5.634;2022-09-27T04:21:50;99523.59;;;17.51;62.00
60319;BME280;46163;52.306;5.634;2022-09-27T04:24:16;99527.06;;;17.57;61.90
60319;BME280;46163;52.306;5.634;2022-09-27T04:26:41;99527.81;;;17.62;61.65
60319;BME280;46163;52.306;5.634;2022-09-27T04:29:07;99526.19;;;17.66;61.54
60319;BME280;46163;52.306;5.634;2022-09-27T04:31:34;99528.06;;;17.71;61.77
60319;BME280;46163;52.306;5.634;2022-09-27T04:34:03;99527.81;;;17.72;61.40
60319;BME280;46163;52.306;5.634;2022-09-27T04:36:29;99521.28;;;17.78;61.25
60319;BME280;46163;52.306;5.634;2022-09-27T04:38:57;99521.56;;;17.82;61.06
60319;BME280;46163;52.306;5.634;2022-09-27T04:41:24;99523.69;;;17.85;61.07
60319;BME280;46163;52.306;5.634;2022-09-27T04:43:50;99527.97;;;17.86;61.06
60319;BME280;46163;52.306;5.634;2022-09-27T04:46:17;99527.16;;;17.91;61.10
60319;BME280;46163;52.306;5.634;2022-09-27T04:48:43;99533.28;;;17.96;60.71
60319;BME280;46163;52.306;5.634;2022-09-27T04:51:13;99521.75;;;17.91;60.84
60319;BME280;46163;52.306;5.634;2022-09-27T04:53:42;99532.16;;;18.02;60.52
60319;BME280;46163;52.306;5.634;2022-09-27T04:56:07;99535.09;;;18.06;60.26
60319;BME280;46163;52.306;5.634;2022-09-27T04:58:33;99529.44;;;18.07;60.24
60319;BME280;46163;52.306;5.634;2022-09-27T05:00:59;99533.44;;;18.10;60.28
60319;BME280;46163;52.306;5.634;2022-09-27T05:03:27;99530.19;;;18.13;60.06
60319;BME280;46163;52.306;5.634;2022-09-27T05:05:53;99532.88;;;18.13;60.21
60319;BME280;46163;52.306;5.634;2022-09-27T05:08:18;99544.16;;;18.15;60.07
60319;BME280;46163;52.306;5.634;2022-09-27T05:10:46;99539.63;;;18.16;59.89
60319;BME280;46163;52.306;5.634;2022-09-27T05:13:12;99529.09;;;18.14;59.77
60319;BME280;46163;52.306;5.634;2022-09-27T05:15:39;99532.88;;;18.13;60.04
60319;BME280;46163;52.306;5.634;2022-09-27T05:18:05;99542.31;;;18.16;59.74
60319;BME280;46163;52.306;5.634;2022-09-27T05:20:32;99533.69;;;18.14;59.87
60319;BME280;46163;52.306;5.634;2022-09-27T05:22:58;99544.44;;;18.14;59.88
60319;BME280;46163;52.306;5.634;2022-09-27T05:25:23;99534.47;;;18.14;59.95
60319;BME280;46163;52.306;5.634;2022-09-27T05:27:49;99536.44;;;18.08;59.90
60319;BME280;46163;52.306;5.634;2022-09-27T05:30:15;99541.47;;;18.15;60.00
60319;BME280;46163;52.306;5.634;2022-09-27T05:32:44;99535.28;;;18.15;59.83
60319;BME280;46163;52.306;5.634;2022-09-27T05:35:10;99541.47;;;18.15;60.00
60319;BME280;46163;52.306;5.634;2022-09-27T05:37:36;99540.13;;;18.18;59.69
60319;BME280;46163;52.306;5.634;2022-09-27T05:40:03;99538.53;;;18.17;59.86
60319;BME280;46163;52.306;5.634;2022-09-27T05:42:28;99543.34;;;18.20;59.99
60319;BME280;46163;52.306;5.634;2022-09-27T05:44:54;99543.03;;;18.21;60.05
60319;BME280;46163;52.306;5.634;2022-09-27T05:47:19;99538.16;;;18.23;60.02
60319;BME280;46163;52.306;5.634;2022-09-27T05:49:45;99546.00;;;18.25;60.03
60319;BME280;46163;52.306;5.634;2022-09-27T05:52:10;99545.72;;;18.26;59.90
60319;BME280;46163;52.306;5.634;2022-09-27T05:54:35;99553.50;;;18.28;59.92
60319;BME280;46163;52.306;5.634;2022-09-27T05:57:01;99553.50;;;18.28;59.84
60319;BME280;46163;52.306;5.634;2022-09-27T05:59:27;99562.38;;;18.28;60.18
60319;BME280;46163;52.306;5.634;2022-09-27T06:01:53;99563.97;;;18.29;60.23
60319;BME280;46163;52.306;5.634;2022-09-27T06:04:29;99565.88;;;18.29;60.47
60319;BME280;46163;52.306;5.634;2022-09-27T06:06:55;99567.19;;;18.31;60.26
60319;BME280;46163;52.306;5.634;2022-09-27T06:09:23;99572.28;;;18.33;60.30
60319;BME280;46163;52.306;5.634;2022-09-27T06:11:48;99568.25;;;18.35;60.46
60319;BME280;46163;52.306;5.634;2022-09-27T06:14:14;99573.88;;;18.39;60.12
60319;BME280;46163;52.306;5.634;2022-09-27T06:16:40;99570.09;;;18.40;60.42
60319;BME280;46163;52.306;5.634;2022-09-27T06:19:06;99574.94;;;18.43;60.26
60319;BME280;46163;52.306;5.634;2022-09-27T06:21:31;99581.91;;;18.44;60.18
60319;BME280;46163;52.306;5.634;2022-09-27T06:23:57;99574.94;;;18.43;60.14
60319;BME280;46163;52.306;5.634;2022-09-27T06:26:26;99575.19;;;18.42;60.17
60319;BME280;46163;52.306;5.634;2022-09-27T06:28:52;99558.88;;;18.28;60.38
60319;BME280;46163;52.306;5.634;2022-09-27T06:31:17;99577.66;;;18.38;60.48
60319;BME280;46163;52.306;5.634;2022-09-27T06:33:43;99581.44;;;18.37;60.36
60319;BME280;46163;52.306;5.634;2022-09-27T06:36:09;99571.47;;;18.38;60.40
60319;BME280;46163;52.306;5.634;2022-09-27T06:38:35;99578.97;;;18.41;60.29
60319;BME280;46163;52.306;5.634;2022-09-27T06:41:02;99585.44;;;18.40;60.41
60319;BME280;46163;52.306;5.634;2022-09-27T06:43:28;99590.03;;;18.39;60.32
60319;BME280;46163;52.306;5.634;2022-09-27T06:45:54;99594.91;;;18.37;60.60
60319;BME280;46163;52.306;5.634;2022-09-27T06:48:20;99587.84;;;18.41;60.45
60319;BME280;46163;52.306;5.634;2022-09-27T06:50:46;99592.69;;;18.44;60.42
60319;BME280;46163;52.306;5.634;2022-09-27T06:53:14;99593.72;;;18.48;60.11
60319;BME280;46163;52.306;5.634;2022-09-27T06:55:40;99586.69;;;18.52;60.19
60319;BME280;46163;52.306;5.634;2022-09-27T06:58:06;99595.28;;;18.54;60.05
60319;BME280;46163;52.306;5.634;2022-09-27T07:00:52;99601.44;;;18.60;60.03
60319;BME280;46163;52.306;5.634;2022-09-27T07:03:20;99596.84;;;18.60;59.79
60319;BME280;46163;52.306;5.634;2022-09-27T07:06:10;99598.47;;;18.61;59.82
60319;BME280;46163;52.306;5.634;2022-09-27T07:08:39;99589.88;;;18.59;59.72
60319;BME280;46163;52.306;5.634;2022-09-27T07:11:05;99604.09;;;18.65;59.67
60319;BME280;46163;52.306;5.634;2022-09-27T07:13:51;99601.13;;;18.67;59.94
60319;BME280;46163;52.306;5.634;2022-09-27T07:16:17;99604.38;;;18.69;59.84
60319;BME280;46163;52.306;5.634;2022-09-27T07:18:43;99607.06;;;18.69;59.72
60319;BME280;46163;52.306;5.634;2022-09-27T07:21:28;99605.97;;;18.70;59.73
60319;BME280;46163;52.306;5.634;2022-09-27T07:23:54;99608.38;;;18.71;59.76
60319;BME280;46163;52.306;5.634;2022-09-27T07:26:39;99603.22;;;18.75;59.62
60319;BME280;46163;52.306;5.634;2022-09-27T07:29:05;99607.50;;;18.76;59.79
60319;BME280;46163;52.306;5.634;2022-09-27T07:31:30;99609.66;;;18.79;59.55
60319;BME280;46163;52.306;5.634;2022-09-27T07:33:56;99602.06;;;18.81;59.75
60319;BME280;46163;52.306;5.634;2022-09-27T07:36:21;99613.88;;;18.85;59.60
60319;BME280;46163;52.306;5.634;2022-09-27T07:38:47;99608.50;;;18.85;59.62
60319;BME280;46163;52.306;5.634;2022-09-27T07:41:13;99606.88;;;18.84;59.47
60319;BME280;46163;52.306;5.634;2022-09-27T07:43:42;99578.75;;;18.66;59.79
60319;BME280;46163;52.306;5.634;2022-09-27T07:46:30;99607.94;;;18.88;59.39
60319;BME280;46163;52.306;5.634;2022-09-27T07:48:55;99611.16;;;18.90;59.64
60319;BME280;46163;52.306;5.634;2022-09-27T07:51:21;99611.16;;;18.90;59.53
60319;BME280;46163;52.306;5.634;2022-09-27T07:54:06;99612.25;;;18.89;59.46
60319;BME280;46163;52.306;5.634;2022-09-27T07:56:32;99620.63;;;18.87;59.65
60319;BME280;46163;52.306;5.634;2022-09-27T07:58:57;99626.00;;;18.87;59.55
60319;BME280;46163;52.306;5.634;2022-09-27T08:01:23;99645.97;;;18.86;59.57
60319;BME280;46163;52.306;5.634;2022-09-27T08:03:49;99647.88;;;18.86;59.27
60319;BME280;46163;52.306;5.634;2022-09-27T08:06:14;99649.22;;;18.83;59.23
60319;BME280;46163;52.306;5.634;2022-09-27T08:08:40;99646.81;;;18.82;59.10
60319;BME280;46163;52.306;5.634;2022-09-27T08:11:25;99659.19;;;18.83;59.24
60319;BME280;46163;52.306;5.634;2022-09-27T08:13:51;99650.09;;;18.79;59.14
60319;BME280;46163;52.306;5.634;2022-09-27T08:16:17;99660.56;;;18.80;58.97
60319;BME280;46163;52.306;5.634;2022-09-27T08:18:43;99663.56;;;18.79;58.82
60319;BME280;46163;52.306;5.634;2022-09-27T08:21:09;99663.31;;;18.75;58.97
60319;BME280;46163;52.306;5.634;2022-09-27T08:23:35;99665.19;;;18.75;59.14
60319;BME280;46163;52.306;5.634;2022-09-27T08:26:01;99673.28;;;18.75;59.09
60319;BME280;46163;52.306;5.634;2022-09-27T08:28:27;99668.97;;;18.74;58.94
60319;BME280;46163;52.306;5.634;2022-09-27T08:30:53;99663.06;;;18.72;58.98
60319;BME280;46163;52.306;5.634;2022-09-27T08:33:20;99668.97;;;18.74;58.95
60319;BME280;46163;52.306;5.634;2022-09-27T08:35:45;99671.66;;;18.74;59.03
60319;BME280;46163;52.306;5.634;2022-09-27T08:38:11;99667.38;;;18.73;58.99
60319;BME280;46163;52.306;5.634;2022-09-27T08:40:56;99661.47;;;18.71;59.06
60319;BME280;46163;52.306;5.634;2022-09-27T08:43:38;99668.47;;;18.72;59.23
60319;BME280;46163;52.306;5.634;2022-09-27T08:48:49;99652.63;;;18.65;59.03
60319;BME280;46163;52.306;5.634;2022-09-27T08:51:16;99676.53;;;18.77;58.90
60319;BME280;46163;52.306;5.634;2022-09-27T08:53:51;99669.75;;;18.79;58.73
60319;BME280;46163;52.306;5.634;2022-09-27T08:56:21;99665.75;;;18.77;58.86
60319;BME280;46163;52.306;5.634;2022-09-27T08:59:05;99669.47;;;18.81;58.71
60319;BME280;46163;52.306;5.634;2022-09-27T09:01:37;99657.31;;;18.83;58.62
60319;BME280;46163;52.306;5.634;2022-09-27T09:04:03;99660.25;;;18.87;58.72
60319;BME280;46163;52.306;5.634;2022-09-27T09:12:32;99656.88;;;19.00;58.46
60319;BME280;46163;52.306;5.634;2022-09-27T09:21:02;99664.84;;;19.10;57.88
60319;BME280;46163;52.306;5.634;2022-09-27T09:26:23;99671.31;;;19.14;57.74
60319;BME280;46163;52.306;5.634;2022-09-27T09:32:24;99674.22;;;19.18;57.58
60319;BME280;46163;52.306;5.634;2022-09-27T09:41:33;99682.03;;;19.19;57.57
60319;BME280;46163;52.306;5.634;2022-09-27T09:44:25;99676.91;;;19.18;57.64
60319;BME280;46163;52.306;5.634;2022-09-27T09:46:55;99678.81;;;19.17;57.84
60319;BME280;46163;52.306;5.634;2022-09-27T09:49:27;99683.41;;;19.17;57.63
60319;BME280;46163;52.306;5.634;2022-09-27T09:52:04;99685.31;;;19.16;57.82
60319;BME280;46163;52.306;5.634;2022-09-27T09:54:42;99678.00;;;19.17;57.72
60319;BME280;46163;52.306;5.634;2022-09-27T09:59:42;99680.50;;;19.13;57.97
60319;BME280;46163;52.306;5.634;2022-09-27T10:02:33;99686.69;;;19.14;57.90
60319;BME280;46163;52.306;5.634;2022-09-27T10:05:03;99685.88;;;19.13;57.93
60319;BME280;46163;52.306;5.634;2022-09-27T10:07:31;99682.38;;;19.13;57.90
60319;BME280;46163;52.306;5.634;2022-09-27T10:09:59;99689.66;;;19.12;57.86
60319;BME280;46163;52.306;5.634;2022-09-27T10:12:27;99689.94;;;19.11;57.91
60319;BME280;46163;52.306;5.634;2022-09-27T10:14:54;99679.44;;;19.09;57.95
60319;BME280;46163;52.306;5.634;2022-09-27T10:17:25;99694.25;;;19.12;57.91
60319;BME280;46163;52.306;5.634;2022-09-27T10:19:55;99692.38;;;19.12;57.78
60319;BME280;46163;52.306;5.634;2022-09-27T10:22:36;99684.53;;;19.11;57.97
60319;BME280;46163;52.306;5.634;2022-09-27T10:25:07;99689.94;;;19.11;57.85
60319;BME280;46163;52.306;5.634;2022-09-27T10:30:26;99693.47;;;19.11;57.87
60319;BME280;46163;52.306;5.634;2022-09-27T10:32:53;99689.13;;;19.10;57.94
60319;BME280;46163;52.306;5.634;2022-09-27T10:35:36;99696.66;;;19.13;57.95
60319;BME280;46163;52.306;5.634;2022-09-27T10:40:54;99695.56;;;19.14;57.95
60319;BME280;46163;52.306;5.634;2022-09-27T10:43:35;99691.78;;;19.15;57.91
60319;BME280;46163;52.306;5.634;2022-09-27T10:48:33;99684.50;;;19.16;57.90
60319;BME280;46163;52.306;5.634;2022-09-27T10:51:01;99671.81;;;19.16;57.91
60319;BME280;46163;52.306;5.634;2022-09-27T10:53:29;99675.31;;;19.17;57.76
60319;BME280;46163;52.306;5.634;2022-09-27T10:55:56;99669.13;;;19.16;57.93
60319;BME280;46163;52.306;5.634;2022-09-27T10:58:26;99675.59;;;19.15;57.85
60319;BME280;46163;52.306;5.634;2022-09-27T11:00:55;99683.41;;;19.17;57.87
60319;BME280;46163;52.306;5.634;2022-09-27T11:03:25;99695.00;;;19.17;57.90
60319;BME280;46163;52.306;5.634;2022-09-27T11:05:53;99695.00;;;19.17;57.94
60319;BME280;46163;52.306;5.634;2022-09-27T11:08:23;99687.47;;;19.14;57.97
60319;BME280;46163;52.306;5.634;2022-09-27T11:11:16;99693.09;;;19.18;57.98
60319;BME280;46163;52.306;5.634;2022-09-27T11:14:02;99690.13;;;19.19;58.10
60319;BME280;46163;52.306;5.634;2022-09-27T11:20:09;99688.25;;;19.20;58.03
60319;BME280;46163;52.306;5.634;2022-09-27T11:25:58;99697.41;;;19.19;58.21
60319;BME280;46163;52.306;5.634;2022-09-27T11:39:13;99684.78;;;19.14;58.56
60319;BME280;46163;52.306;5.634;2022-09-27T11:41:59;99674.00;;;19.14;58.55
60319;BME280;46163;52.306;5.634;2022-09-27T11:58:24;99678.88;;;19.12;58.60
60319;BME280;46163;52.306;5.634;2022-09-27T12:09:11;99668.34;;;19.11;58.68
60319;BME280;46163;52.306;5.634;2022-09-27T12:11:49;99674.59;;;19.11;58.75
60319;BME280;46163;52.306;5.634;2022-09-27T12:17:08;99679.44;;;19.09;58.81
60319;BME280;46163;52.306;5.634;2022-09-27T12:19:40;99685.91;;;19.08;58.94
60319;BME280;46163;52.306;5.634;2022-09-27T12:22:13;99681.63;;;19.07;58.71
60319;BME280;46163;52.306;5.634;2022-09-27T12:24:42;99688.09;;;19.06;58.86
60319;BME280;46163;52.306;5.634;2022-09-27T12:27:14;99692.41;;;19.07;58.89
60319;BME280;46163;52.306;5.634;2022-09-27T12:29:41;99691.38;;;19.03;58.74
60319;BME280;46163;52.306;5.634;2022-09-27T12:35:09;99684.91;;;19.04;58.95
60319;BME280;46163;52.306;5.634;2022-09-27T12:37:47;99681.41;;;19.04;58.81
60319;BME280;46163;52.306;5.634;2022-09-27T12:40:21;99669.50;;;19.05;59.18
60319;BME280;46163;52.306;5.634;2022-09-27T12:43:03;99670.59;;;19.04;58.93
60319;BME280;46163;52.306;5.634;2022-09-27T12:45:49;99676.00;;;19.04;58.89
60319;BME280;46163;52.306;5.634;2022-09-27T12:50:54;99682.47;;;19.03;59.03
60319;BME280;46163;52.306;5.634;2022-09-27T12:53:42;99684.34;;;19.02;58.94
60319;BME280;46163;52.306;5.634;2022-09-27T13:13:19;99686.78;;;19.04;59.39
60319;BME280;46163;52.306;5.634;2022-09-27T13:15:46;99685.19;;;19.03;59.46
60319;BME280;46163;52.306;5.634;2022-09-27T13:21:01;99691.88;;;19.05;59.69
60319;BME280;46163;52.306;5.634;2022-09-27T13:30:58;99688.31;;;19.10;59.92
60319;BME280;46163;52.306;5.634;2022-09-27T13:46:59;99687.22;;;19.11;59.76
60319;BME280;46163;52.306;5.634;2022-09-27T13:49:28;99685.59;;;19.15;59.64
60319;BME280;46163;52.306;5.634;2022-09-27T13:52:00;99685.31;;;19.16;59.89
60319;BME280;46163;52.306;5.634;2022-09-27T13:54:54;99687.47;;;19.14;59.72
60319;BME280;46163;52.306;5.634;2022-09-27T13:57:43;99687.47;;;19.14;59.60
60319;BME280;46163;52.306;5.634;2022-09-27T14:00:33;99682.91;;;19.15;59.66
60319;BME280;46163;52.306;5.634;2022-09-27T14:05:46;99673.19;;;19.14;59.63
60319;BME280;46163;52.306;5.634;2022-09-27T14:08:59;99681.28;;;19.14;59.56
60319;BME280;46163;52.306;5.634;2022-09-27T14:11:43;99677.78;;;19.13;59.67
60319;BME280;46163;52.306;5.634;2022-09-27T14:14:22;99682.38;;;19.13;59.56
60319;BME280;46163;52.306;5.634;2022-09-27T14:16:49;99686.97;;;19.12;59.61
60319;BME280;46163;52.306;5.634;2022-09-27T14:19:20;99668.09;;;19.12;59.64
60319;BME280;46163;52.306;5.634;2022-09-27T14:21:46;99660.81;;;19.13;59.52
60319;BME280;46163;52.306;5.634;2022-09-27T14:29:53;99640.53;;;19.15;59.52
60319;BME280;46163;52.306;5.634;2022-09-27T14:32:26;99648.34;;;19.17;59.60
60319;BME280;46163;52.306;5.634;2022-09-27T14:35:21;99643.75;;;19.17;59.31
60319;BME280;46163;52.306;5.634;2022-09-27T14:38:20;99638.06;;;19.19;59.15
60319;BME280;46163;52.306;5.634;2022-09-27T14:43:21;99643.19;;;19.20;59.17
60319;BME280;46163;52.306;5.634;2022-09-27T14:45:48;99644.00;;;19.21;59.20
60319;BME280;46163;52.306;5.634;2022-09-27T14:48:33;99638.06;;;19.19;59.23
60319;BME280;46163;52.306;5.634;2022-09-27T14:51:15;99646.75;;;19.16;59.32
60319;BME280;46163;52.306;5.634;2022-09-27T14:53:51;99642.16;;;19.16;59.16
60319;BME280;46163;52.306;5.634;2022-09-27T14:56:24;99646.75;;;19.16;59.30
60319;BME280;46163;52.306;5.634;2022-09-27T14:58:58;99644.34;;;19.14;59.24
60319;BME280;46163;52.306;5.634;2022-09-27T15:01:27;99648.13;;;19.13;59.31
60319;BME280;46163;52.306;5.634;2022-09-27T15:03:55;99635.47;;;19.09;59.33
60319;BME280;46163;52.306;5.634;2022-09-27T15:06:21;99645.97;;;19.10;59.34
60319;BME280;46163;52.306;5.634;2022-09-27T15:08:48;99657.84;;;19.09;59.60
60319;BME280;46163;52.306;5.634;2022-09-27T15:11:18;99651.94;;;19.07;59.55
60319;BME280;46163;52.306;5.634;2022-09-27T15:13:45;99668.44;;;19.06;59.61
60319;BME280;46163;52.306;5.634;2022-09-27T15:16:19;99675.19;;;19.03;59.83
60319;BME280;46163;52.306;5.634;2022-09-27T15:18:48;99667.09;;;19.03;59.96
60319;BME280;46163;52.306;5.634;2022-09-27T15:21:27;99659.81;;;19.04;60.13
60319;BME280;46163;52.306;5.634;2022-09-27T15:23:54;99654.44;;;19.04;60.01
60319;BME280;46163;52.306;5.634;2022-09-27T15:26:24;99641.22;;;19.02;60.25
60319;BME280;46163;52.306;5.634;2022-09-27T15:28:52;99646.59;;;19.02;60.29
60319;BME280;46163;52.306;5.634;2022-09-27T15:31:27;99636.41;;;18.99;60.61
60319;BME280;46163;52.306;5.634;2022-09-27T15:33:55;99633.69;;;18.99;60.70
60319;BME280;46163;52.306;5.634;2022-09-27T15:39:35;99619.63;;;19.02;61.70
60319;BME280;46163;52.306;5.634;2022-09-27T15:44:38;99624.47;;;19.05;62.42
60319;BME280;46163;52.306;5.634;2022-09-27T15:52:54;99613.56;;;19.15;63.26
60319;BME280;46163;52.306;5.634;2022-09-27T15:55:23;99618.94;;;19.20;63.27
60319;BME280;46163;52.306;5.634;2022-09-27T15:57:54;99611.56;;;19.26;62.98
60319;BME280;46163;52.306;5.634;2022-09-27T16:00:22;99620.13;;;19.33;62.95
60319;BME280;46163;52.306;5.634;2022-09-27T16:02:48;99609.31;;;19.33;62.77
60319;BME280;46163;52.306;5.634;2022-09-27T16:05:13;99598.25;;;19.35;62.65
60319;BME280;46163;52.306;5.634;2022-09-27T16:07:39;99602.28;;;19.37;62.50
60319;BME280;46163;52.306;5.634;2022-09-27T16:10:13;99606.56;;;19.38;62.44
60319;BME280;46163;52.306;5.634;2022-09-27T16:12:39;99600.09;;;19.39;62.26
60319;BME280;46163;52.306;5.634;2022-09-27T16:15:06;99596.00;;;19.42;61.99
60319;BME280;46163;52.306;5.634;2022-09-27T16:17:32;99588.50;;;19.39;62.02
60319;BME280;46163;52.306;5.634;2022-09-27T16:20:02;99593.81;;;19.44;62.08
60319;BME280;46163;52.306;5.634;2022-09-27T16:22:27;99587.31;;;19.45;61.84
60319;BME280;46163;52.306;5.634;2022-09-27T16:24:53;99585.16;;;19.47;61.74
60319;BME280;46163;52.306;5.634;2022-09-27T16:27:26;99582.72;;;19.45;61.51
60319;BME280;46163;52.306;5.634;2022-09-27T16:29:54;99587.25;;;19.50;61.61